createdAt,value
2019-01-09T00:00:48.799Z,0.00
2019-01-09T00:01:48.766Z,0.00
2019-01-09T00:02:48.715Z,0.00
2019-01-09T00:04:09.688Z,0.00
2019-01-09T00:04:48.644Z,0.00
2019-01-09T00:05:48.620Z,0.00
2019-01-09T00:06:48.581Z,0.00
2019-01-09T00:07:48.541Z,0.00
2019-01-09T00:08:48.503Z,0.00
2019-01-09T00:10:09.456Z,0.00
2019-01-09T00:10:48.425Z,0.00
2019-01-09T00:11:48.389Z,0.00
2019-01-09T00:12:48.349Z,0.00
2019-01-09T00:13:48.314Z,0.00
2019-01-09T00:14:48.271Z,0.00
2019-01-09T00:16:09.220Z,0.00
2019-01-09T00:16:48.191Z,0.00
2019-01-09T00:17:48.165Z,0.00
2019-01-09T00:18:48.116Z,0.00
2019-01-09T00:19:48.084Z,0.00
2019-01-09T00:20:48.039Z,0.00
2019-01-09T00:22:09.005Z,0.00
2019-01-09T00:22:47.975Z,0.00
2019-01-09T00:23:47.934Z,0.00
2019-01-09T00:24:47.896Z,0.00
2019-01-09T00:25:47.857Z,0.00
2019-01-09T00:26:47.816Z,0.00
2019-01-09T00:28:08.776Z,0.00
2019-01-09T00:28:47.732Z,0.00
2019-01-09T00:29:47.701Z,0.00
2019-01-09T00:30:47.670Z,0.00
2019-01-09T00:31:47.632Z,0.00
2019-01-09T00:32:47.586Z,0.00
2019-01-09T00:34:08.535Z,0.00
2019-01-09T00:34:47.514Z,0.00
2019-01-09T00:35:47.475Z,0.00
2019-01-09T00:36:47.457Z,0.00
2019-01-09T00:37:47.407Z,0.00
2019-01-09T00:38:47.360Z,0.00
2019-01-09T00:40:08.332Z,0.00
2019-01-09T00:40:47.277Z,0.00
2019-01-09T00:41:47.255Z,0.00
2019-01-09T00:42:47.227Z,0.00
2019-01-09T00:43:47.184Z,0.00
2019-01-09T00:44:47.140Z,0.00
2019-01-09T00:46:08.083Z,0.00
2019-01-09T00:46:47.138Z,0.00
2019-01-09T00:47:47.035Z,0.00
2019-01-09T00:48:46.986Z,0.00
2019-01-09T00:49:46.946Z,0.00
2019-01-09T00:50:46.906Z,0.00
2019-01-09T00:52:07.856Z,0.00
2019-01-09T00:52:46.832Z,0.00
2019-01-09T00:53:46.801Z,0.00
2019-01-09T00:54:46.751Z,0.00
2019-01-09T00:55:46.719Z,0.00
2019-01-09T00:56:46.678Z,0.00
2019-01-09T00:58:07.643Z,0.00
2019-01-09T00:58:46.597Z,0.00
2019-01-09T00:59:46.569Z,0.00
2019-01-09T01:00:46.530Z,0.00
2019-01-09T01:01:46.488Z,0.00
2019-01-09T01:02:46.453Z,0.00
2019-01-09T01:04:07.397Z,0.00
2019-01-09T01:04:46.379Z,0.00
2019-01-09T01:05:46.528Z,0.00
2019-01-09T01:06:46.311Z,0.00
2019-01-09T01:07:46.261Z,0.00
2019-01-09T01:08:46.221Z,0.00
2019-01-09T01:10:07.183Z,0.00
2019-01-09T01:11:07.174Z,0.00
2019-01-09T01:11:46.129Z,0.00
2019-01-09T01:12:46.109Z,0.00
2019-01-09T01:13:46.051Z,0.00
2019-01-09T01:15:07.001Z,0.00
2019-01-09T01:15:45.975Z,0.00
2019-01-09T01:16:45.943Z,0.00
2019-01-09T01:17:45.886Z,0.00
2019-01-09T01:18:45.845Z,0.00
2019-01-09T01:19:45.811Z,0.00
2019-01-09T01:21:06.839Z,0.00
2019-01-09T01:21:45.729Z,0.00
2019-01-09T01:22:45.689Z,0.00
2019-01-09T01:23:45.648Z,0.00
2019-01-09T01:24:45.616Z,0.00
2019-01-09T01:25:45.579Z,0.00
2019-01-09T01:27:06.528Z,0.00
2019-01-09T01:27:45.508Z,0.00
2019-01-09T01:28:45.474Z,0.00
2019-01-09T01:29:45.439Z,0.00
2019-01-09T01:30:45.402Z,0.00
2019-01-09T01:31:45.358Z,0.00
2019-01-09T01:33:06.305Z,0.00
2019-01-09T01:33:45.273Z,0.00
2019-01-09T01:34:45.232Z,0.00
2019-01-09T01:35:45.194Z,0.00
2019-01-09T01:36:45.159Z,0.00
2019-01-09T01:37:45.123Z,0.00
2019-01-09T01:39:06.089Z,0.00
2019-01-09T01:39:45.055Z,0.00
2019-01-09T01:40:45.005Z,0.00
2019-01-09T01:41:44.985Z,0.00
2019-01-09T01:42:44.938Z,0.00
2019-01-09T01:43:44.890Z,0.00
2019-01-09T01:45:05.850Z,0.00
2019-01-09T01:45:44.815Z,0.00
2019-01-09T01:46:44.781Z,0.00
2019-01-09T01:47:44.750Z,0.00
2019-01-09T01:48:44.703Z,0.00
2019-01-09T01:49:44.668Z,0.00
2019-01-09T01:51:05.617Z,0.00
2019-01-09T01:51:44.603Z,0.00
2019-01-09T01:52:44.555Z,0.00
2019-01-09T01:53:44.509Z,0.00
2019-01-09T01:54:44.494Z,0.00
2019-01-09T01:55:44.427Z,0.00
2019-01-09T01:57:05.389Z,0.00
2019-01-09T01:57:44.366Z,0.00
2019-01-09T01:58:44.324Z,0.00
2019-01-09T01:59:44.289Z,0.00
2019-01-09T02:00:44.244Z,0.00
2019-01-09T02:01:44.219Z,0.00
2019-01-09T02:03:05.166Z,0.00
2019-01-09T02:03:44.130Z,0.00
2019-01-09T02:04:44.098Z,0.00
2019-01-09T02:05:44.065Z,0.00
2019-01-09T02:06:44.025Z,0.00
2019-01-09T02:07:43.989Z,0.00
2019-01-09T02:09:04.942Z,0.00
2019-01-09T02:09:43.900Z,0.00
2019-01-09T02:10:43.858Z,0.00
2019-01-09T02:11:43.848Z,0.00
2019-01-09T02:12:43.786Z,0.00
2019-01-09T02:13:43.761Z,0.00
2019-01-09T02:15:04.722Z,0.00
2019-01-09T02:15:43.680Z,0.00
2019-01-09T02:16:43.642Z,0.00
2019-01-09T02:17:43.606Z,0.00
2019-01-09T02:18:43.567Z,0.00
2019-01-09T02:19:43.540Z,0.00
2019-01-09T02:21:04.560Z,0.00
2019-01-09T02:21:43.461Z,0.00
2019-01-09T02:22:43.421Z,0.00
2019-01-09T02:23:43.376Z,0.00
2019-01-09T02:24:43.343Z,0.00
2019-01-09T02:25:43.307Z,0.00
2019-01-09T02:27:04.271Z,0.00
2019-01-09T02:27:43.221Z,0.00
2019-01-09T02:28:43.177Z,0.00
2019-01-09T02:29:43.151Z,0.00
2019-01-09T02:30:43.115Z,0.00
2019-01-09T02:31:43.079Z,0.00
2019-01-09T02:33:04.023Z,0.00
2019-01-09T02:33:43.010Z,0.00
2019-01-09T02:34:42.962Z,0.00
2019-01-09T02:35:42.914Z,0.00
2019-01-09T02:36:42.879Z,0.00
2019-01-09T02:37:42.842Z,0.00
2019-01-09T02:39:03.807Z,0.00
2019-01-09T02:39:42.768Z,0.00
2019-01-09T02:40:42.731Z,0.00
2019-01-09T02:41:42.703Z,0.00
2019-01-09T02:42:42.662Z,0.00
2019-01-09T02:43:42.620Z,0.00
2019-01-09T02:45:03.579Z,0.00
2019-01-09T02:45:42.563Z,0.00
2019-01-09T02:46:42.497Z,0.00
2019-01-09T02:47:42.462Z,0.00
2019-01-09T02:48:42.424Z,0.00
2019-01-09T02:49:42.392Z,0.00
2019-01-09T02:51:03.357Z,0.00
2019-01-09T02:51:42.307Z,0.00
2019-01-09T02:52:42.278Z,0.00
2019-01-09T02:53:42.235Z,0.00
2019-01-09T02:54:42.191Z,0.00
2019-01-09T02:55:42.158Z,0.00
2019-01-09T02:57:03.120Z,0.00
2019-01-09T02:57:42.082Z,0.00
2019-01-09T02:58:42.044Z,0.00
2019-01-09T02:59:42.019Z,0.00
2019-01-09T03:00:41.958Z,0.00
2019-01-09T03:01:41.953Z,0.00
2019-01-09T03:03:02.888Z,0.00
2019-01-09T03:03:41.856Z,0.00
2019-01-09T03:04:41.815Z,0.00
2019-01-09T03:05:41.778Z,0.00
2019-01-09T03:06:41.740Z,0.00
2019-01-09T03:07:41.704Z,0.00
2019-01-09T03:09:02.663Z,0.00
2019-01-09T03:09:41.637Z,0.00
2019-01-09T03:10:41.589Z,0.00
2019-01-09T03:11:41.557Z,0.00
2019-01-09T03:12:41.513Z,0.00
2019-01-09T03:13:41.486Z,0.00
2019-01-09T03:15:02.432Z,0.00
2019-01-09T03:15:41.405Z,0.00
2019-01-09T03:16:41.359Z,0.00
2019-01-09T03:17:41.323Z,0.00
2019-01-09T03:18:41.284Z,0.00
2019-01-09T03:19:41.246Z,0.00
2019-01-09T03:21:02.195Z,0.00
2019-01-09T03:21:41.167Z,0.00
2019-01-09T03:22:41.138Z,0.00
2019-01-09T03:23:41.088Z,0.00
2019-01-09T03:24:41.058Z,0.00
2019-01-09T03:25:41.018Z,0.00
2019-01-09T03:27:01.985Z,0.00
2019-01-09T03:27:40.944Z,0.00
2019-01-09T03:28:40.914Z,0.00
2019-01-09T03:29:40.864Z,0.00
2019-01-09T03:30:40.820Z,0.00
2019-01-09T03:31:40.802Z,0.00
2019-01-09T03:33:01.744Z,0.00
2019-01-09T03:33:40.726Z,0.00
2019-01-09T03:34:40.677Z,0.00
2019-01-09T03:35:40.634Z,0.00
2019-01-09T03:36:40.606Z,0.00
2019-01-09T03:37:40.550Z,0.00
2019-01-09T03:39:01.521Z,0.00
2019-01-09T03:39:40.480Z,0.00
2019-01-09T03:40:40.452Z,0.00
2019-01-09T03:41:40.403Z,0.00
2019-01-09T03:42:40.360Z,0.00
2019-01-09T03:43:40.328Z,0.00
2019-01-09T03:45:01.290Z,0.00
2019-01-09T03:45:40.256Z,0.00
2019-01-09T03:46:40.216Z,0.00
2019-01-09T03:47:40.182Z,0.00
2019-01-09T03:48:40.145Z,0.00
2019-01-09T03:49:40.100Z,0.00
2019-01-09T03:51:01.060Z,0.00
2019-01-09T03:51:40.020Z,0.00
2019-01-09T03:52:39.997Z,0.00
2019-01-09T03:53:39.944Z,0.00
2019-01-09T03:54:39.931Z,0.00
2019-01-09T03:55:39.887Z,0.00
2019-01-09T03:57:00.836Z,0.00
2019-01-09T03:57:39.790Z,0.00
2019-01-09T03:58:39.761Z,0.00
2019-01-09T03:59:39.725Z,0.00
2019-01-09T04:00:39.690Z,0.00
2019-01-09T04:01:39.653Z,0.00
2019-01-09T04:03:00.601Z,0.00
2019-01-09T04:03:39.573Z,0.00
2019-01-09T04:04:39.526Z,0.00
2019-01-09T04:05:39.487Z,0.00
2019-01-09T04:06:41.960Z,0.00
2019-01-09T04:07:39.412Z,0.00
2019-01-09T04:09:00.381Z,0.00
2019-01-09T04:09:39.362Z,0.00
2019-01-09T04:10:39.312Z,0.00
2019-01-09T04:11:39.276Z,0.00
2019-01-09T04:12:39.226Z,0.00
2019-01-09T04:13:39.183Z,0.00
2019-01-09T04:15:00.478Z,0.00
2019-01-09T04:15:39.111Z,0.00
2019-01-09T04:16:39.078Z,0.00
2019-01-09T04:17:39.038Z,0.00
2019-01-09T04:18:39.001Z,0.00
2019-01-09T04:19:38.972Z,0.00
2019-01-09T04:20:59.916Z,0.00
2019-01-09T04:21:38.898Z,0.00
2019-01-09T04:22:38.852Z,0.00
2019-01-09T04:23:38.823Z,0.00
2019-01-09T04:24:38.771Z,0.00
2019-01-09T04:25:38.756Z,0.00
2019-01-09T04:26:59.687Z,0.00
2019-01-09T04:27:38.657Z,0.00
2019-01-09T04:28:38.658Z,0.00
2019-01-09T04:29:38.582Z,0.00
2019-01-09T04:30:38.552Z,0.00
2019-01-09T04:31:38.534Z,0.00
2019-01-09T04:32:59.456Z,0.00
2019-01-09T04:33:38.423Z,0.00
2019-01-09T04:34:38.401Z,0.00
2019-01-09T04:35:38.357Z,0.00
2019-01-09T04:36:38.322Z,0.00
2019-01-09T04:37:38.277Z,0.00
2019-01-09T04:38:59.242Z,0.00
2019-01-09T04:39:38.197Z,0.00
2019-01-09T04:40:38.154Z,0.00
2019-01-09T04:41:38.147Z,0.00
2019-01-09T04:42:38.079Z,0.00
2019-01-09T04:43:38.044Z,0.00
2019-01-09T04:44:59.000Z,0.00
2019-01-09T04:45:37.972Z,0.00
2019-01-09T04:46:37.928Z,0.00
2019-01-09T04:47:37.894Z,0.00
2019-01-09T04:48:37.873Z,0.00
2019-01-09T04:49:37.828Z,0.00
2019-01-09T04:50:58.785Z,0.00
2019-01-09T04:51:37.737Z,0.00
2019-01-09T04:52:37.699Z,0.00
2019-01-09T04:53:37.662Z,0.00
2019-01-09T04:54:37.639Z,0.00
2019-01-09T04:55:37.605Z,0.00
2019-01-09T04:56:58.539Z,0.00
2019-01-09T04:57:37.512Z,0.00
2019-01-09T04:58:37.460Z,0.00
2019-01-09T04:59:37.444Z,0.00
2019-01-09T05:00:37.394Z,0.00
2019-01-09T05:01:37.377Z,0.00
2019-01-09T05:02:58.315Z,0.00
2019-01-09T05:03:37.275Z,0.00
2019-01-09T05:04:37.257Z,0.00
2019-01-09T05:05:37.216Z,0.00
2019-01-09T05:06:37.173Z,0.00
2019-01-09T05:07:37.124Z,0.00
2019-01-09T05:08:58.083Z,0.00
2019-01-09T05:09:37.047Z,0.00
2019-01-09T05:10:37.028Z,0.00
2019-01-09T05:11:36.975Z,0.00
2019-01-09T05:12:36.933Z,0.00
2019-01-09T05:13:36.906Z,0.00
2019-01-09T05:14:57.860Z,0.00
2019-01-09T05:15:36.819Z,0.00
2019-01-09T05:16:36.788Z,0.00
2019-01-09T05:17:36.746Z,0.00
2019-01-09T05:18:36.705Z,0.00
2019-01-09T05:19:36.681Z,0.00
2019-01-09T05:20:57.619Z,0.00
2019-01-09T05:21:36.593Z,0.00
2019-01-09T05:22:36.561Z,0.00
2019-01-09T05:23:36.515Z,0.00
2019-01-09T05:24:36.483Z,0.00
2019-01-09T05:25:36.448Z,0.00
2019-01-09T05:26:57.404Z,0.00
2019-01-09T05:27:36.375Z,0.00
2019-01-09T05:28:36.326Z,0.00
2019-01-09T05:29:36.280Z,0.00
2019-01-09T05:30:36.612Z,0.00
2019-01-09T05:31:36.215Z,0.00
2019-01-09T05:32:57.166Z,0.00
2019-01-09T05:33:36.138Z,0.00
2019-01-09T05:34:36.085Z,0.00
2019-01-09T05:35:36.069Z,0.00
2019-01-09T05:36:36.039Z,0.00
2019-01-09T05:37:35.976Z,0.00
2019-01-09T05:38:56.944Z,0.00
2019-01-09T05:39:39.746Z,0.00
2019-01-09T05:40:35.856Z,0.00
2019-01-09T05:41:35.927Z,0.00
2019-01-09T05:42:35.805Z,0.00
2019-01-09T05:43:35.751Z,0.00
2019-01-09T05:44:57.871Z,0.00
2019-01-09T05:45:35.684Z,0.00
2019-01-09T05:46:35.635Z,0.00
2019-01-09T05:47:35.610Z,0.00
2019-01-09T05:48:35.557Z,0.00
2019-01-09T05:49:35.517Z,0.00
2019-01-09T05:50:56.492Z,0.00
2019-01-09T05:51:35.446Z,0.00
2019-01-09T05:52:35.401Z,0.00
2019-01-09T05:53:35.367Z,0.00
2019-01-09T05:54:35.335Z,0.00
2019-01-09T05:55:35.292Z,0.00
2019-01-09T05:56:56.245Z,0.00
2019-01-09T05:57:35.215Z,0.00
2019-01-09T05:58:35.196Z,0.00
2019-01-09T05:59:35.136Z,0.00
2019-01-09T06:00:35.091Z,0.00
2019-01-09T06:01:35.077Z,0.00
2019-01-09T06:02:56.014Z,0.00
2019-01-09T06:03:34.981Z,0.00
2019-01-09T06:04:34.953Z,0.00
2019-01-09T06:05:34.897Z,0.00
2019-01-09T06:06:34.875Z,0.00
2019-01-09T06:07:34.833Z,0.00
2019-01-09T06:08:55.792Z,0.00
2019-01-09T06:09:34.763Z,0.00
2019-01-09T06:10:34.712Z,0.00
2019-01-09T06:11:34.680Z,0.00
2019-01-09T06:12:34.637Z,0.00
2019-01-09T06:13:34.591Z,0.00
2019-01-09T06:14:55.588Z,0.00
2019-01-09T06:15:34.537Z,0.00
2019-01-09T06:16:34.491Z,0.00
2019-01-09T06:17:34.452Z,0.00
2019-01-09T06:18:34.408Z,0.00
2019-01-09T06:19:34.378Z,0.00
2019-01-09T06:20:55.328Z,0.00
2019-01-09T06:21:34.307Z,0.00
2019-01-09T06:22:34.256Z,0.00
2019-01-09T06:23:34.223Z,0.00
2019-01-09T06:24:34.177Z,0.00
2019-01-09T06:25:34.147Z,0.00
2019-01-09T06:26:55.098Z,0.00
2019-01-09T06:27:34.064Z,0.00
2019-01-09T06:28:34.030Z,0.00
2019-01-09T06:29:33.982Z,0.00
2019-01-09T06:30:33.957Z,0.00
2019-01-09T06:31:33.908Z,0.00
2019-01-09T06:32:54.875Z,0.00
2019-01-09T06:33:33.825Z,0.00
2019-01-09T06:34:33.807Z,0.00
2019-01-09T06:35:33.763Z,0.00
2019-01-09T06:36:33.727Z,0.00
2019-01-09T06:37:33.673Z,0.00
2019-01-09T06:38:54.637Z,0.00
2019-01-09T06:39:33.598Z,0.00
2019-01-09T06:40:33.560Z,0.00
2019-01-09T06:41:33.533Z,0.00
2019-01-09T06:42:33.489Z,0.00
2019-01-09T06:43:33.449Z,0.00
2019-01-09T06:44:54.425Z,0.00
2019-01-09T06:45:33.384Z,0.00
2019-01-09T06:46:33.331Z,0.00
2019-01-09T06:47:33.295Z,0.00
2019-01-09T06:48:33.272Z,0.00
2019-01-09T06:49:33.214Z,0.00
2019-01-09T06:50:54.175Z,0.00
2019-01-09T06:51:33.145Z,0.00
2019-01-09T06:52:33.094Z,0.00
2019-01-09T06:53:33.085Z,0.00
2019-01-09T06:54:33.037Z,0.00
2019-01-09T06:55:32.979Z,0.00
2019-01-09T06:56:53.948Z,0.00
2019-01-09T06:57:32.920Z,0.00
2019-01-09T06:58:32.863Z,0.00
2019-01-09T06:59:32.828Z,0.00
2019-01-09T07:00:32.781Z,0.00
2019-01-09T07:01:32.754Z,0.00
2019-01-09T07:02:53.713Z,0.00
2019-01-09T07:03:32.679Z,0.00
2019-01-09T07:04:32.636Z,0.00
2019-01-09T07:05:32.614Z,0.00
2019-01-09T07:06:32.550Z,0.00
2019-01-09T07:07:36.091Z,0.00
2019-01-09T07:08:53.469Z,0.00
2019-01-09T07:09:32.443Z,0.00
2019-01-09T07:10:32.412Z,0.00
2019-01-09T07:11:32.361Z,0.00
2019-01-09T07:12:32.318Z,0.00
2019-01-09T07:13:32.290Z,0.00
2019-01-09T07:14:53.249Z,0.00
2019-01-09T07:15:32.213Z,0.00
2019-01-09T07:16:32.163Z,0.00
2019-01-09T07:17:32.137Z,0.00
2019-01-09T07:18:32.105Z,0.00
2019-01-09T07:19:32.056Z,0.00
2019-01-09T07:20:53.015Z,0.00
2019-01-09T07:21:31.981Z,0.00
2019-01-09T07:22:31.931Z,0.00
2019-01-09T07:23:31.915Z,0.00
2019-01-09T07:24:31.865Z,0.00
2019-01-09T07:25:31.829Z,0.00
2019-01-09T07:26:52.795Z,0.00
2019-01-09T07:27:31.753Z,0.00
2019-01-09T07:28:31.710Z,0.00
2019-01-09T07:29:31.671Z,0.00
2019-01-09T07:30:31.634Z,0.00
2019-01-09T07:31:31.612Z,0.00
2019-01-09T07:32:52.547Z,0.00
2019-01-09T07:33:31.515Z,0.00
2019-01-09T07:34:31.475Z,0.00
2019-01-09T07:35:31.440Z,0.00
2019-01-09T07:36:31.401Z,0.00
2019-01-09T07:37:31.356Z,0.00
2019-01-09T07:38:52.307Z,0.00
2019-01-09T07:39:31.286Z,0.00
2019-01-09T07:40:31.247Z,0.00
2019-01-09T07:41:31.197Z,0.00
2019-01-09T07:42:31.162Z,0.00
2019-01-09T07:43:31.119Z,0.00
2019-01-09T07:44:52.082Z,0.00
2019-01-09T07:45:31.055Z,0.00
2019-01-09T07:46:31.007Z,0.00
2019-01-09T07:47:30.983Z,0.00
2019-01-09T07:48:30.981Z,0.00
2019-01-09T07:49:30.932Z,0.00
2019-01-09T07:50:51.872Z,0.00
2019-01-09T07:51:30.823Z,0.00
2019-01-09T07:52:30.773Z,0.00
2019-01-09T07:53:30.743Z,0.00
2019-01-09T07:54:30.708Z,0.00
2019-01-09T07:55:30.661Z,0.00
2019-01-09T07:56:51.627Z,0.00
2019-01-09T07:57:30.591Z,0.00
2019-01-09T07:58:30.547Z,0.00
2019-01-09T07:59:30.523Z,5.63
2019-01-09T08:00:30.473Z,5.63
2019-01-09T08:01:30.437Z,5.63
2019-01-09T08:02:51.388Z,5.63
2019-01-09T08:03:30.405Z,5.63
2019-01-09T08:04:32.406Z,5.63
2019-01-09T08:05:30.288Z,5.63
2019-01-09T08:06:30.239Z,5.63
2019-01-09T08:07:30.213Z,5.63
2019-01-09T08:08:51.183Z,5.63
2019-01-09T08:09:30.132Z,11.25
2019-01-09T08:10:30.083Z,11.25
2019-01-09T08:11:30.047Z,11.25
2019-01-09T08:12:30.017Z,11.25
2019-01-09T08:13:30.010Z,11.25
2019-01-09T08:14:50.937Z,5.63
2019-01-09T08:15:29.888Z,5.63
2019-01-09T08:16:29.857Z,5.63
2019-01-09T08:17:29.814Z,11.25
2019-01-09T08:18:29.779Z,11.25
2019-01-09T08:19:29.742Z,11.25
2019-01-09T08:20:50.699Z,11.25
2019-01-09T08:21:29.658Z,11.25
2019-01-09T08:22:29.628Z,11.25
2019-01-09T08:23:29.594Z,11.25
2019-01-09T08:24:29.545Z,11.25
2019-01-09T08:25:29.498Z,11.25
2019-01-09T08:26:50.469Z,11.25
2019-01-09T08:27:29.436Z,11.25
2019-01-09T08:28:29.394Z,11.25
2019-01-09T08:29:29.354Z,11.25
2019-01-09T08:30:29.320Z,11.25
2019-01-09T08:31:29.282Z,11.25
2019-01-09T08:32:50.228Z,11.25
2019-01-09T08:33:29.203Z,11.25
2019-01-09T08:34:29.181Z,11.25
2019-01-09T08:35:29.120Z,11.25
2019-01-09T08:36:29.085Z,11.25
2019-01-09T08:37:29.055Z,16.88
2019-01-09T08:38:50.025Z,16.88
2019-01-09T08:39:28.975Z,16.88
2019-01-09T08:40:28.945Z,16.88
2019-01-09T08:41:28.894Z,16.88
2019-01-09T08:42:28.870Z,16.88
2019-01-09T08:43:28.813Z,11.25
2019-01-09T08:44:49.770Z,11.25
2019-01-09T08:45:28.773Z,16.88
2019-01-09T08:46:28.696Z,16.88
2019-01-09T08:47:28.656Z,16.88
2019-01-09T08:48:28.624Z,16.88
2019-01-09T08:49:28.586Z,16.88
2019-01-09T08:50:49.541Z,16.88
2019-01-09T08:51:28.495Z,16.88
2019-01-09T08:52:28.459Z,16.88
2019-01-09T08:53:28.439Z,22.50
2019-01-09T08:54:28.375Z,28.13
2019-01-09T08:55:28.365Z,28.13
2019-01-09T08:56:49.309Z,33.75
2019-01-09T08:57:28.280Z,33.75
2019-01-09T08:58:28.240Z,33.75
2019-01-09T08:59:28.214Z,33.75
2019-01-09T09:00:28.160Z,33.75
2019-01-09T09:01:28.126Z,33.75
2019-01-09T09:02:49.074Z,33.75
2019-01-09T09:03:28.046Z,33.75
2019-01-09T09:04:28.013Z,33.75
2019-01-09T09:05:27.980Z,33.75
2019-01-09T09:06:27.929Z,28.13
2019-01-09T09:07:27.885Z,28.13
2019-01-09T09:08:48.840Z,28.13
2019-01-09T09:09:27.820Z,33.75
2019-01-09T09:10:27.776Z,33.75
2019-01-09T09:11:27.751Z,33.75
2019-01-09T09:12:27.715Z,39.38
2019-01-09T09:13:27.659Z,45.00
2019-01-09T09:14:48.621Z,50.63
2019-01-09T09:15:27.617Z,28.13
2019-01-09T09:16:36.365Z,11.25
2019-01-09T09:17:27.505Z,5.63
2019-01-09T09:18:27.470Z,5.63
2019-01-09T09:19:27.435Z,5.63
2019-01-09T09:20:48.390Z,5.63
2019-01-09T09:21:27.351Z,5.63
2019-01-09T09:22:27.321Z,5.63
2019-01-09T09:23:27.287Z,5.63
2019-01-09T09:24:27.239Z,5.63
2019-01-09T09:25:27.195Z,11.25
2019-01-09T09:26:48.161Z,11.25
2019-01-09T09:27:27.120Z,11.25
2019-01-09T09:28:27.092Z,16.88
2019-01-09T09:29:27.057Z,16.88
2019-01-09T09:30:27.026Z,22.50
2019-01-09T09:31:26.981Z,28.13
2019-01-09T09:32:47.932Z,33.75
2019-01-09T09:33:26.900Z,56.25
2019-01-09T09:34:26.852Z,56.25
2019-01-09T09:35:26.827Z,39.38
2019-01-09T09:36:26.797Z,33.75
2019-01-09T09:37:26.757Z,39.38
2019-01-09T09:38:47.696Z,61.88
2019-01-09T09:39:26.667Z,67.50
2019-01-09T09:40:26.621Z,67.50
2019-01-09T09:41:26.591Z,73.13
2019-01-09T09:42:26.546Z,84.38
2019-01-09T09:43:26.518Z,90.00
2019-01-09T09:44:47.467Z,67.50
2019-01-09T09:45:26.432Z,101.25
2019-01-09T09:46:26.396Z,95.63
2019-01-09T09:47:26.355Z,140.63
2019-01-09T09:48:26.316Z,646.88
2019-01-09T09:49:26.289Z,1231.88
2019-01-09T09:50:47.236Z,883.13
2019-01-09T09:51:26.203Z,106.88
2019-01-09T09:52:26.183Z,1231.88
2019-01-09T09:53:26.137Z,1310.63
2019-01-09T09:54:26.099Z,1130.63
2019-01-09T09:55:26.059Z,1102.50
2019-01-09T09:56:47.018Z,1333.13
2019-01-09T09:57:25.979Z,1355.63
2019-01-09T09:58:25.961Z,1305.00
2019-01-09T09:59:25.944Z,1299.38
2019-01-09T10:00:25.879Z,630.00
2019-01-09T10:01:25.858Z,1012.50
2019-01-09T10:02:46.818Z,95.63
2019-01-09T10:03:25.780Z,551.25
2019-01-09T10:04:25.742Z,1046.25
2019-01-09T10:06:57.783Z,1153.13
2019-01-09T10:07:57.728Z,298.13
2019-01-09T10:08:57.689Z,84.38
2019-01-09T10:09:57.690Z,101.25
2019-01-09T10:10:57.629Z,978.75
2019-01-09T10:11:57.629Z,888.75
2019-01-09T10:12:57.578Z,815.63
2019-01-09T10:13:57.535Z,292.50
2019-01-09T10:14:57.489Z,202.50
2019-01-09T10:15:57.459Z,213.75
2019-01-09T10:16:57.427Z,78.75
2019-01-09T10:17:57.390Z,50.63
2019-01-09T10:18:57.352Z,45.00
2019-01-09T10:19:57.315Z,45.00
2019-01-09T10:20:57.279Z,45.00
2019-01-09T10:21:57.245Z,39.38
2019-01-09T10:22:57.215Z,33.75
2019-01-09T10:23:57.175Z,33.75
2019-01-09T10:24:57.143Z,28.13
2019-01-09T10:25:57.105Z,28.13
2019-01-09T10:26:57.066Z,45.00
2019-01-09T10:27:57.055Z,742.50
2019-01-09T10:28:57.000Z,421.88
2019-01-09T10:29:56.963Z,933.75
2019-01-09T10:30:56.923Z,900.00
2019-01-09T10:31:56.894Z,810.00
2019-01-09T10:32:56.881Z,900.00
2019-01-09T10:33:56.824Z,894.38
2019-01-09T10:34:56.781Z,905.63
2019-01-09T10:35:56.761Z,900.00
2019-01-09T10:36:56.725Z,916.88
2019-01-09T10:37:56.697Z,911.25
2019-01-09T10:38:56.660Z,843.75
2019-01-09T10:39:56.628Z,680.63
2019-01-09T10:40:56.596Z,613.13
2019-01-09T10:41:56.555Z,663.75
2019-01-09T10:42:56.521Z,669.38
2019-01-09T10:43:56.519Z,630.00
2019-01-09T10:44:56.457Z,675.00
2019-01-09T10:45:56.445Z,579.38
2019-01-09T10:46:56.402Z,444.38
2019-01-09T10:47:56.359Z,483.75
2019-01-09T10:48:56.332Z,523.13
2019-01-09T10:49:56.329Z,630.00
2019-01-09T10:50:56.271Z,691.88
2019-01-09T10:51:56.250Z,770.63
2019-01-09T10:52:56.201Z,793.13
2019-01-09T10:53:56.175Z,787.50
2019-01-09T10:54:56.160Z,579.38
2019-01-09T10:55:56.115Z,523.13
2019-01-09T10:56:56.071Z,241.88
2019-01-09T10:57:56.086Z,776.25
2019-01-09T10:58:56.017Z,793.13
2019-01-09T10:59:55.993Z,157.50
2019-01-09T11:00:55.955Z,731.25
2019-01-09T11:01:55.912Z,697.50
2019-01-09T11:02:55.910Z,691.88
2019-01-09T11:03:55.855Z,680.63
2019-01-09T11:04:55.821Z,663.75
2019-01-09T11:05:55.835Z,736.88
2019-01-09T11:06:55.815Z,725.63
2019-01-09T11:07:55.786Z,725.63
2019-01-09T11:08:55.690Z,506.25
2019-01-09T11:09:55.662Z,748.13
2019-01-09T11:10:55.686Z,759.38
2019-01-09T11:11:55.688Z,680.63
2019-01-09T11:12:55.611Z,579.38
2019-01-09T11:13:55.571Z,748.13
2019-01-09T11:14:55.512Z,669.38
2019-01-09T11:15:55.527Z,151.88
2019-01-09T11:16:55.485Z,90.00
2019-01-09T11:17:55.434Z,106.88
2019-01-09T11:18:55.386Z,78.75
2019-01-09T11:19:55.375Z,45.00
2019-01-09T11:20:55.397Z,45.00
2019-01-09T11:21:55.298Z,50.63
2019-01-09T11:22:55.272Z,236.25
2019-01-09T11:23:55.238Z,118.13
2019-01-09T11:24:55.199Z,95.63
2019-01-09T11:25:55.173Z,163.13
2019-01-09T11:26:55.142Z,50.63
2019-01-09T11:27:55.113Z,39.38
2019-01-09T11:28:55.073Z,33.75
2019-01-09T11:29:55.059Z,33.75
2019-01-09T11:30:55.011Z,33.75
2019-01-09T11:31:54.994Z,33.75
2019-01-09T11:32:54.934Z,39.38
2019-01-09T11:33:54.898Z,56.25
2019-01-09T11:34:54.907Z,90.00
2019-01-09T11:35:54.833Z,61.88
2019-01-09T11:36:54.817Z,56.25
2019-01-09T11:37:54.758Z,180.00
2019-01-09T11:38:55.914Z,337.50
2019-01-09T11:39:54.699Z,320.63
2019-01-09T11:40:54.662Z,67.50
2019-01-09T11:41:54.637Z,151.88
2019-01-09T11:42:54.598Z,50.63
2019-01-09T11:43:54.605Z,33.75
2019-01-09T11:44:54.521Z,39.38
2019-01-09T11:45:54.498Z,45.00
2019-01-09T11:46:54.454Z,45.00
2019-01-09T11:47:54.477Z,106.88
2019-01-09T11:48:54.383Z,56.25
2019-01-09T11:49:54.387Z,39.38
2019-01-09T11:50:54.318Z,33.75
2019-01-09T11:51:54.282Z,28.13
2019-01-09T11:52:54.244Z,28.13
2019-01-09T11:53:54.217Z,28.13
2019-01-09T11:54:54.234Z,39.38
2019-01-09T11:55:54.134Z,39.38
2019-01-09T11:56:54.104Z,39.38
2019-01-09T11:57:54.067Z,39.38
2019-01-09T11:58:54.042Z,33.75
2019-01-09T11:59:54.014Z,28.13
2019-01-09T12:00:54.019Z,22.50
2019-01-09T12:01:53.960Z,22.50
2019-01-09T12:02:53.884Z,33.75
2019-01-09T12:03:53.842Z,33.75
2019-01-09T12:04:53.830Z,28.13
2019-01-09T12:05:53.799Z,28.13
2019-01-09T12:06:53.744Z,28.13
2019-01-09T12:07:53.719Z,28.13
2019-01-09T12:08:53.675Z,28.13
2019-01-09T12:09:53.643Z,28.13
2019-01-09T12:10:53.673Z,28.13
2019-01-09T12:11:53.560Z,39.38
2019-01-09T12:12:53.530Z,444.38
2019-01-09T12:13:53.509Z,106.88
2019-01-09T12:14:53.463Z,45.00
2019-01-09T12:15:53.418Z,28.13
2019-01-09T12:16:53.395Z,33.75
2019-01-09T12:17:53.355Z,39.38
2019-01-09T12:18:53.351Z,39.38
2019-01-09T12:19:53.279Z,33.75
2019-01-09T12:20:53.236Z,33.75
2019-01-09T12:21:53.207Z,39.38
2019-01-09T12:22:53.258Z,28.13
2019-01-09T12:23:53.133Z,28.13
2019-01-09T12:24:53.109Z,28.13
2019-01-09T12:25:53.060Z,28.13
2019-01-09T12:26:53.017Z,22.50
2019-01-09T12:27:52.993Z,16.88
2019-01-09T12:28:53.545Z,16.88
2019-01-09T12:29:52.934Z,16.88
2019-01-09T12:30:52.930Z,22.50
2019-01-09T12:31:52.847Z,28.13
2019-01-09T12:32:52.796Z,33.75
2019-01-09T12:33:52.774Z,28.13
2019-01-09T12:34:52.739Z,45.00
2019-01-09T12:35:52.699Z,191.25
2019-01-09T12:36:52.654Z,39.38
2019-01-09T12:37:52.644Z,45.00
2019-01-09T12:38:52.592Z,101.25
2019-01-09T12:39:52.546Z,45.00
2019-01-09T12:40:52.526Z,39.38
2019-01-09T12:41:52.477Z,39.38
2019-01-09T12:42:52.439Z,45.00
2019-01-09T12:43:52.400Z,39.38
2019-01-09T12:44:52.359Z,28.13
2019-01-09T12:45:52.336Z,22.50
2019-01-09T12:46:52.299Z,22.50
2019-01-09T12:47:52.301Z,16.88
2019-01-09T12:48:52.241Z,16.88
2019-01-09T12:49:52.193Z,16.88
2019-01-09T12:50:52.176Z,11.25
2019-01-09T12:51:52.124Z,11.25
2019-01-09T12:52:52.760Z,11.25
2019-01-09T12:53:52.040Z,16.88
2019-01-09T12:54:51.995Z,16.88
2019-01-09T12:55:51.998Z,22.50
2019-01-09T12:56:51.942Z,28.13
2019-01-09T12:57:51.931Z,28.13
2019-01-09T12:58:51.846Z,28.13
2019-01-09T12:59:51.825Z,28.13
2019-01-09T13:00:51.797Z,303.75
2019-01-09T13:01:51.780Z,39.38
2019-01-09T13:02:51.752Z,28.13
2019-01-09T13:03:51.682Z,28.13
2019-01-09T13:04:51.657Z,28.13
2019-01-09T13:05:51.643Z,28.13
2019-01-09T13:06:51.561Z,22.50